Time;durP1;ratioP1;P1;durP2;ratioP2;P2;SDS_P1;SDS_P2;PMS_P1;PMS_P2;Temp;Humidity;BMP_temperature;BMP_pressure;BME280_temperature;BME280_humidity;BME280_pressure;Samples;Min_cycle;Max_cycle;Signal;HPM_P1;HPM_P2
2020/12/22 00:01:21;;;;;;;25.40;11.87;;;5.80;90.20;;;;;;4973757;28;20241;-79
2020/12/22 00:03:47;;;;;;;26.03;11.70;;;5.80;90.30;;;;;;4973442;28;20845;-78
2020/12/22 00:06:20;;;;;;;24.07;11.73;;;5.80;90.20;;;;;;4973926;28;20962;-78
2020/12/22 00:08:46;;;;;;;31.00;10.90;;;5.80;90.00;;;;;;4973027;28;20210;-77
2020/12/22 00:11:12;;;;;;;20.87;10.70;;;5.80;90.00;;;;;;4973390;28;20178;-78
2020/12/22 00:13:37;;;;;;;21.77;11.10;;;5.80;89.70;;;;;;4973183;28;20171;-78
2020/12/22 00:16:03;;;;;;;22.60;12.07;;;5.80;89.70;;;;;;4973837;28;20181;-78
2020/12/22 00:18:28;;;;;;;25.03;12.53;;;5.70;90.10;;;;;;4956805;28;20194;-77
2020/12/22 00:20:54;;;;;;;27.27;13.10;;;5.70;90.20;;;;;;4967062;28;20201;-78
2020/12/22 00:23:20;;;;;;;36.13;15.23;;;5.70;90.20;;;;;;4988327;28;20251;-78
2020/12/22 00:25:47;;;;;;;28.50;14.93;;;5.70;90.30;;;;;;4953471;28;20197;-78
2020/12/22 00:28:14;;;;;;;33.70;14.03;;;5.70;90.20;;;;;;4960382;28;20805;-78
2020/12/22 00:30:40;;;;;;;34.00;16.07;;;5.70;90.30;;;;;;4973357;28;20178;-78
2020/12/22 00:33:07;;;;;;;43.07;18.60;;;5.70;90.40;;;;;;4955549;28;20186;-78
2020/12/22 00:35:32;;;;;;;41.10;17.37;;;5.70;90.50;;;;;;4972885;28;20244;-78
2020/12/22 00:37:59;;;;;;;37.17;17.43;;;5.70;90.60;;;;;;4969880;28;20186;-78
2020/12/22 00:40:25;;;;;;;37.27;15.20;;;5.70;90.60;;;;;;4973304;28;20226;-78
2020/12/22 00:42:51;;;;;;;30.37;14.60;;;5.70;90.60;;;;;;4967978;28;20218;-78
2020/12/22 00:45:18;;;;;;;26.27;13.87;;;5.70;90.50;;;;;;4952407;29;20202;-78
2020/12/22 00:47:44;;;;;;;30.73;13.93;;;5.70;90.50;;;;;;4953663;29;20171;-78
2020/12/22 00:50:10;;;;;;;28.83;13.37;;;5.70;90.50;;;;;;4957152;28;21011;-78
2020/12/22 00:52:35;;;;;;;30.07;12.80;;;5.70;90.50;;;;;;4972678;28;20182;-78
2020/12/22 00:55:01;;;;;;;33.37;14.67;;;5.80;90.50;;;;;;4973132;28;20213;-78
2020/12/22 00:57:27;;;;;;;33.57;14.90;;;5.80;90.50;;;;;;4972778;28;20183;-78
2020/12/22 00:59:53;;;;;;;25.27;12.93;;;5.80;90.40;;;;;;4973000;28;20741;-78
2020/12/22 01:02:18;;;;;;;30.23;12.63;;;5.80;90.40;;;;;;4972563;28;20191;-79
2020/12/22 01:04:44;;;;;;;22.20;11.80;;;5.80;90.40;;;;;;4955069;28;20198;-78
2020/12/22 01:07:09;;;;;;;30.97;14.20;;;5.80;90.40;;;;;;4973039;28;20238;-78
2020/12/22 01:09:35;;;;;;;31.50;12.57;;;5.80;90.30;;;;;;4972582;28;20198;-78
2020/12/22 01:12:01;;;;;;;34.53;13.83;;;5.80;90.30;;;;;;4955595;28;20218;-78
2020/12/22 01:14:26;;;;;;;31.77;14.50;;;5.80;90.30;;;;;;4972093;28;20290;-78
2020/12/22 01:16:55;;;;;;;29.40;13.13;;;5.80;90.40;;;;;;4957888;28;20195;-79
2020/12/22 01:19:21;;;;;;;32.70;13.37;;;5.80;90.40;;;;;;4963108;28;20182;-78
2020/12/22 01:21:53;;;;;;;27.10;13.07;;;5.80;90.40;;;;;;4983856;28;20256;-78
2020/12/22 01:24:20;;;;;;;27.30;13.97;;;5.80;90.40;;;;;;4983409;28;20225;-78
2020/12/22 01:26:47;;;;;;;25.27;11.70;;;5.80;90.50;;;;;;4972386;28;20189;-78
2020/12/22 01:29:13;;;;;;;30.53;13.30;;;5.80;90.40;;;;;;4970984;28;20713;-78
2020/12/22 01:31:39;;;;;;;19.73;11.63;;;5.80;90.50;;;;;;4970958;28;20171;-78
2020/12/22 01:34:04;;;;;;;26.23;13.13;;;5.80;90.60;;;;;;4970512;28;20214;-78
2020/12/22 01:36:31;;;;;;;27.53;13.90;;;5.80;90.60;;;;;;4970266;28;20189;-78
2020/12/22 01:38:57;;;;;;;29.30;14.30;;;5.80;90.50;;;;;;4969230;28;20245;-78
2020/12/22 01:41:23;;;;;;;24.53;12.97;;;5.80;90.50;;;;;;4952766;29;20179;-79
2020/12/22 01:44:12;;;;;;;26.07;13.37;;;5.80;90.50;;;;;;4952879;29;20183;-78
2020/12/22 01:46:43;;;;;;;27.10;11.50;;;5.80;90.40;;;;;;4893262;29;20193;-78
2020/12/22 01:49:27;;;;;;;18.17;10.33;;;5.80;90.40;;;;;;4893576;29;20805;-78
2020/12/22 01:51:56;;;;;;;20.27;10.87;;;5.80;90.20;;;;;;4877065;29;20688;-78
2020/12/22 01:54:23;;;;;;;15.90;9.00;;;5.80;90.20;;;;;;4887002;29;20189;-78
2020/12/22 01:56:49;;;;;;;18.13;9.60;;;5.80;90.20;;;;;;4879704;29;20277;-78
2020/12/22 01:59:17;;;;;;;21.10;10.73;;;5.80;90.20;;;;;;4893358;29;20264;-79
2020/12/22 02:01:43;;;;;;;21.80;11.53;;;5.80;90.20;;;;;;4892144;29;20776;-79
2020/12/22 02:04:10;;;;;;;29.40;13.07;;;5.80;90.20;;;;;;4886636;29;20221;-79
2020/12/22 02:06:36;;;;;;;25.27;13.23;;;5.80;90.20;;;;;;4892856;29;20199;-78
2020/12/22 02:09:09;;;;;;;31.20;14.10;;;5.80;90.10;;;;;;4877180;29;20205;-79
2020/12/22 02:11:36;;;;;;;29.23;15.10;;;5.80;90.20;;;;;;4878465;29;20276;-79
2020/12/22 02:14:04;;;;;;;31.17;14.70;;;5.80;90.30;;;;;;4892919;29;20185;-79
2020/12/22 02:16:30;;;;;;;27.33;13.50;;;5.80;90.50;;;;;;4895231;29;20198;-78
2020/12/22 02:18:56;;;;;;;28.30;14.17;;;5.70;90.50;;;;;;4911348;29;20635;-79
2020/12/22 02:21:22;;;;;;;27.90;15.23;;;5.70;90.60;;;;;;4903197;29;20184;-79
2020/12/22 02:23:49;;;;;;;29.43;15.03;;;5.70;90.60;;;;;;4945705;28;20197;-79
2020/12/22 02:26:15;;;;;;;31.40;14.77;;;5.70;90.60;;;;;;4971286;28;21010;-78
2020/12/22 02:28:41;;;;;;;32.70;15.73;;;5.70;90.60;;;;;;4970909;28;20206;-79
2020/12/22 02:31:07;;;;;;;30.60;16.23;;;5.70;90.70;;;;;;4971424;28;20185;-79
2020/12/22 02:33:33;;;;;;;30.60;16.97;;;5.70;90.70;;;;;;4957310;28;20747;-78
2020/12/22 02:35:59;;;;;;;34.33;17.53;;;5.70;90.70;;;;;;4950815;28;20644;-79
2020/12/22 02:38:25;;;;;;;27.57;15.23;;;5.70;90.60;;;;;;4950650;29;20624;-79
2020/12/22 02:40:50;;;;;;;22.73;13.43;;;5.70;90.50;;;;;;4959176;28;20185;-79
2020/12/22 02:43:16;;;;;;;22.87;12.70;;;5.70;90.50;;;;;;4971620;28;20204;-79
2020/12/22 02:45:44;;;;;;;18.73;10.47;;;5.70;90.40;;;;;;4971280;28;20182;-79
2020/12/22 02:48:11;;;;;;;24.20;12.80;;;5.70;90.30;;;;;;4967004;28;20179;-79
2020/12/22 02:50:37;;;;;;;22.23;11.97;;;5.70;90.20;;;;;;4967925;28;20278;-79
2020/12/22 02:53:04;;;;;;;22.27;12.67;;;5.70;90.10;;;;;;4980850;28;20630;-79
2020/12/22 02:55:29;;;;;;;27.30;13.00;;;5.60;90.20;;;;;;4971421;28;20175;-79
2020/12/22 02:57:55;;;;;;;22.10;11.53;;;5.60;90.20;;;;;;4971145;28;20909;-79
2020/12/22 03:00:22;;;;;;;21.00;11.27;;;5.60;90.20;;;;;;4971292;28;20178;-79
2020/12/22 03:03:07;;;;;;;23.27;10.83;;;5.60;90.30;;;;;;4953340;28;20610;-79
2020/12/22 03:05:33;;;;;;;18.00;9.77;;;5.60;90.10;;;;;;4957300;28;20181;-79
2020/12/22 03:07:59;;;;;;;20.30;10.10;;;5.60;90.20;;;;;;4990165;28;20228;-79
2020/12/22 03:10:24;;;;;;;13.43;8.90;;;5.60;90.30;;;;;;4964816;28;20203;-79
2020/12/22 03:12:50;;;;;;;15.77;9.20;;;5.60;90.30;;;;;;4967594;28;20190;-79
2020/12/22 03:15:17;;;;;;;14.60;9.00;;;5.60;90.20;;;;;;4955942;28;20249;-78
2020/12/22 03:17:42;;;;;;;15.07;8.73;;;5.60;90.10;;;;;;4968364;28;20184;-79
2020/12/22 03:20:10;;;;;;;17.00;7.90;;;5.60;90.00;;;;;;4970168;28;20194;-78
2020/12/22 03:22:36;;;;;;;15.60;8.70;;;5.60;90.00;;;;;;4974977;28;20193;-78
2020/12/22 03:25:03;;;;;;;12.27;7.53;;;5.60;90.10;;;;;;4960592;28;20187;-78
2020/12/22 03:27:29;;;;;;;17.33;8.53;;;5.60;90.10;;;;;;4948711;28;21010;-78
2020/12/22 03:29:55;;;;;;;16.23;9.00;;;5.60;90.20;;;;;;4952218;28;20285;-78
2020/12/22 03:32:20;;;;;;;11.87;8.17;;;5.60;90.20;;;;;;4958192;28;20230;-78
2020/12/22 03:34:46;;;;;;;14.97;8.67;;;5.60;90.00;;;;;;4969113;28;20248;-79
2020/12/22 03:37:19;;;;;;;16.73;9.57;;;5.50;90.00;;;;;;4970610;28;20179;-78
2020/12/22 03:39:49;;;;;;;14.97;7.90;;;5.50;90.10;;;;;;4970139;28;20182;-78
2020/12/22 03:42:15;;;;;;;14.67;8.00;;;5.50;90.20;;;;;;4958227;28;20186;-78
2020/12/22 03:44:41;;;;;;;11.93;7.40;;;5.50;90.20;;;;;;4969656;28;20178;-78
2020/12/22 03:47:06;;;;;;;15.93;8.53;;;5.50;90.20;;;;;;4955341;28;20984;-78
2020/12/22 03:49:32;;;;;;;18.87;7.83;;;5.50;90.10;;;;;;4970010;28;20226;-79
2020/12/22 03:51:58;;;;;;;15.47;7.67;;;5.50;90.20;;;;;;4970477;28;20232;-78
2020/12/22 03:54:26;;;;;;;12.43;8.27;;;5.50;90.20;;;;;;4970179;28;21033;-79
2020/12/22 03:56:51;;;;;;;19.27;9.00;;;5.50;90.30;;;;;;4950824;28;20242;-78
2020/12/22 03:59:17;;;;;;;15.83;8.30;;;5.50;90.30;;;;;;4950922;29;20219;-78
2020/12/22 04:01:43;;;;;;;20.87;10.27;;;5.50;90.50;;;;;;4950633;29;20179;-78
2020/12/22 04:04:08;;;;;;;21.07;10.23;;;5.50;90.50;;;;;;4950391;29;20285;-77
2020/12/22 04:06:34;;;;;;;14.60;8.50;;;5.50;90.50;;;;;;4958628;28;20186;-77
2020/12/22 04:08:59;;;;;;;19.83;9.70;;;5.50;90.50;;;;;;4985170;28;20252;-77
2020/12/22 04:11:25;;;;;;;16.37;9.00;;;5.50;90.60;;;;;;4962519;28;20866;-77
2020/12/22 04:13:51;;;;;;;21.73;9.43;;;5.50;90.60;;;;;;4969936;28;20179;-77
2020/12/22 04:16:17;;;;;;;19.07;10.27;;;5.50;90.60;;;;;;4975180;28;20189;-77
2020/12/22 04:18:42;;;;;;;19.03;9.63;;;5.40;90.70;;;;;;4989664;28;20203;-78
2020/12/22 04:21:08;;;;;;;15.57;9.17;;;5.50;90.70;;;;;;4971574;28;20182;-79
2020/12/22 04:23:34;;;;;;;18.80;10.30;;;5.40;90.70;;;;;;4987743;28;20269;-78
2020/12/22 04:25:59;;;;;;;16.57;9.13;;;5.50;90.80;;;;;;4964902;28;20363;-78
2020/12/22 04:28:25;;;;;;;21.20;10.33;;;5.50;90.80;;;;;;4973963;28;20174;-78
2020/12/22 04:30:51;;;;;;;23.73;11.10;;;5.50;90.70;;;;;;4952354;28;20191;-78
2020/12/22 04:33:17;;;;;;;19.77;10.93;;;5.40;90.60;;;;;;4936354;29;20187;-78
2020/12/22 04:35:43;;;;;;;22.43;11.90;;;5.40;90.70;;;;;;4979564;28;20273;-78
2020/12/22 04:38:09;;;;;;;22.47;11.77;;;5.40;90.80;;;;;;4957357;28;20183;-77
2020/12/22 04:40:35;;;;;;;18.90;10.40;;;5.40;90.80;;;;;;4973735;28;20183;-78
2020/12/22 04:43:01;;;;;;;23.07;10.93;;;5.40;90.80;;;;;;4973122;28;20190;-77
2020/12/22 04:45:28;;;;;;;23.43;11.53;;;5.40;90.90;;;;;;4972513;28;20246;-78
2020/12/22 04:47:55;;;;;;;25.90;11.63;;;5.40;90.90;;;;;;4973442;28;20249;-78
2020/12/22 04:50:21;;;;;;;25.90;11.20;;;5.40;91.00;;;;;;4980577;28;20644;-79
2020/12/22 04:52:48;;;;;;;27.50;11.67;;;5.40;90.90;;;;;;4972661;28;20659;-79
2020/12/22 04:55:14;;;;;;;24.07;11.53;;;5.40;91.00;;;;;;4973376;28;20182;-79
2020/12/22 04:57:49;;;;;;;25.70;12.17;;;5.40;91.00;;;;;;4973188;28;20178;-79
2020/12/22 05:00:15;;;;;;;22.40;10.60;;;5.40;91.00;;;;;;4972590;28;20166;-77
2020/12/22 05:02:42;;;;;;;23.03;10.57;;;5.40;91.10;;;;;;4960582;28;21032;-78
2020/12/22 05:05:10;;;;;;;24.97;12.53;;;5.40;91.10;;;;;;4959561;28;20194;-79
2020/12/22 05:07:36;;;;;;;23.27;10.97;;;5.40;91.10;;;;;;4960608;28;20182;-78
2020/12/22 05:10:11;;;;;;;19.60;10.13;;;5.40;91.10;;;;;;4972329;28;20210;-78
2020/12/22 05:12:41;;;;;;;24.77;11.80;;;5.50;91.00;;;;;;4973138;28;20725;-78
2020/12/22 05:15:10;;;;;;;29.40;12.40;;;5.50;91.00;;;;;;4952616;28;20183;-78
2020/12/22 05:17:44;;;;;;;24.77;11.20;;;5.50;91.00;;;;;;4951722;29;20187;-78
2020/12/22 05:20:13;;;;;;;26.47;12.43;;;5.50;91.00;;;;;;4954897;28;20730;-78
2020/12/22 05:22:40;;;;;;;30.77;13.67;;;5.50;91.00;;;;;;4963168;28;20189;-78
2020/12/22 05:25:06;;;;;;;25.77;13.27;;;5.50;91.00;;;;;;4964306;28;20198;-78
2020/12/22 05:27:32;;;;;;;29.57;14.10;;;5.50;91.10;;;;;;4969713;28;20186;-76
2020/12/22 05:30:04;;;;;;;34.97;15.60;;;5.50;91.10;;;;;;4968265;28;20264;-77
2020/12/22 05:32:31;;;;;;;26.70;13.80;;;5.50;91.10;;;;;;4949805;29;20187;-77
2020/12/22 05:34:58;;;;;;;28.50;13.73;;;5.40;91.20;;;;;;4968908;28;20260;-76
2020/12/22 05:37:26;;;;;;;30.70;14.90;;;5.40;91.30;;;;;;4960065;28;20655;-76
2020/12/22 05:39:52;;;;;;;36.93;14.83;;;5.40;91.30;;;;;;4963348;28;20686;-76
2020/12/22 05:42:19;;;;;;;28.70;14.67;;;5.40;91.30;;;;;;4969223;28;20179;-76
2020/12/22 05:44:49;;;;;;;30.90;13.97;;;5.40;91.30;;;;;;4980296;28;20201;-76
2020/12/22 05:47:20;;;;;;;32.40;14.23;;;5.50;91.30;;;;;;4970845;28;20676;-76
2020/12/22 05:49:59;;;;;;;32.30;14.80;;;5.50;91.30;;;;;;4954643;28;20260;-76
2020/12/22 05:52:26;;;;;;;29.63;14.07;;;5.50;91.30;;;;;;4956834;28;20257;-76
2020/12/22 05:54:53;;;;;;;31.90;14.37;;;5.50;91.40;;;;;;4979289;28;20235;-76
2020/12/22 05:57:29;;;;;;;29.87;13.30;;;5.50;91.40;;;;;;4988977;28;20542;-75
2020/12/22 05:59:56;;;;;;;24.07;12.40;;;5.50;91.30;;;;;;4975163;28;20297;-78
2020/12/22 06:02:31;;;;;;;24.40;12.30;;;5.50;91.40;;;;;;4956490;28;20186;-78
2020/12/22 06:05:01;;;;;;;21.33;11.30;;;5.50;91.30;;;;;;4966230;28;20189;-78
2020/12/22 06:07:30;;;;;;;23.57;13.17;;;5.60;91.40;;;;;;4971375;28;20217;-77
2020/12/22 06:09:56;;;;;;;26.30;12.63;;;5.60;91.30;;;;;;4983922;28;20212;-78
2020/12/22 06:12:24;;;;;;;24.63;12.27;;;5.60;91.30;;;;;;4990929;28;20182;-78
2020/12/22 06:14:52;;;;;;;18.60;11.03;;;5.60;91.30;;;;;;4970531;28;20206;-82
2020/12/22 06:17:19;;;;;;;25.17;12.67;;;5.60;91.40;;;;;;4954341;28;20220;-80
2020/12/22 06:19:46;;;;;;;20.27;11.10;;;5.60;91.40;;;;;;4978541;28;20189;-77
2020/12/22 06:22:13;;;;;;;23.67;11.67;;;5.60;91.30;;;;;;4963537;28;20264;-78
2020/12/22 06:24:40;;;;;;;25.63;11.73;;;5.60;91.30;;;;;;4937537;28;20206;-78
2020/12/22 06:27:11;;;;;;;20.20;11.23;;;5.60;91.30;;;;;;4951677;28;20285;-78
2020/12/22 06:29:45;;;;;;;21.27;10.00;;;5.60;91.10;;;;;;4951210;29;20218;-78
2020/12/22 06:32:16;;;;;;;23.63;11.43;;;5.60;91.00;;;;;;4952157;29;20159;-79
2020/12/22 06:34:45;;;;;;;23.77;10.97;;;5.60;91.00;;;;;;4943135;28;20183;-86
2020/12/22 06:37:12;;;;;;;24.77;11.23;;;5.70;91.10;;;;;;4967930;28;20305;-86
2020/12/22 06:39:49;;;;;;;24.67;10.90;;;5.70;91.10;;;;;;4971386;28;20281;-86
2020/12/22 06:42:30;;;;;;;22.97;10.03;;;5.70;91.00;;;;;;4980181;28;20190;-80
2020/12/22 06:45:23;;;;;;;22.13;11.27;;;5.70;91.10;;;;;;4969681;28;20290;-88
2020/12/22 06:47:50;;;;;;;22.17;10.70;;;5.70;90.90;;;;;;4955838;28;20233;-78
2020/12/22 06:50:34;;;;;;;26.33;10.70;;;5.70;91.00;;;;;;4965802;28;20198;-80
2020/12/22 06:53:00;;;;;;;18.90;10.77;;;5.80;90.90;;;;;;4971722;28;20194;-78
2020/12/22 06:55:49;;;;;;;26.73;12.70;;;5.80;91.00;;;;;;4971668;28;20683;-80
2020/12/22 06:58:41;;;;;;;23.77;10.83;;;5.80;90.60;;;;;;4954145;28;20202;-79
2020/12/22 07:01:26;;;;;;;21.80;10.83;;;5.80;90.60;;;;;;4957133;28;20285;-79
2020/12/22 07:04:17;;;;;;;26.93;11.43;;;5.80;90.60;;;;;;4953504;28;20206;-79
2020/12/22 07:06:46;;;;;;;25.27;11.27;;;5.90;90.60;;;;;;4951883;29;20201;-80
2020/12/22 07:09:21;;;;;;;24.67;11.73;;;5.90;90.60;;;;;;4949984;29;20787;-79
2020/12/22 07:11:52;;;;;;;21.80;11.20;;;6.00;90.50;;;;;;4951569;29;20167;-80
2020/12/22 07:14:20;;;;;;;20.80;11.43;;;6.00;90.30;;;;;;4950268;29;20190;-80
2020/12/22 07:16:59;;;;;;;26.80;11.00;;;6.00;90.40;;;;;;4950507;29;20171;-80
2020/12/22 07:19:30;;;;;;;23.03;12.23;;;6.10;90.30;;;;;;4956768;28;20189;-80
2020/12/22 07:21:57;;;;;;;23.67;12.60;;;6.10;90.30;;;;;;4970668;28;20186;-80
2020/12/22 07:24:27;;;;;;;22.33;12.03;;;6.20;90.30;;;;;;4950010;29;20195;-80
2020/12/22 07:26:53;;;;;;;19.47;10.63;;;6.20;90.20;;;;;;4965387;28;20189;-79
2020/12/22 07:29:19;;;;;;;24.33;12.60;;;6.30;90.10;;;;;;4970092;28;20205;-80
2020/12/22 07:31:47;;;;;;;24.73;12.57;;;6.30;89.80;;;;;;4970360;28;20182;-80
2020/12/22 07:34:13;;;;;;;21.17;11.80;;;6.30;89.90;;;;;;4970601;28;20185;-79
2020/12/22 07:36:40;;;;;;;29.67;12.57;;;6.30;90.10;;;;;;4970733;28;20174;-80
2020/12/22 07:39:17;;;;;;;24.53;12.33;;;6.40;90.10;;;;;;4961215;28;20214;-80
2020/12/22 07:41:44;;;;;;;21.47;12.20;;;6.40;90.00;;;;;;4947354;28;20201;-79
2020/12/22 07:44:15;;;;;;;25.77;13.70;;;6.50;89.70;;;;;;4957335;28;20277;-80
2020/12/22 07:46:44;;;;;;;24.97;12.93;;;6.60;89.60;;;;;;4950361;29;20935;-80
2020/12/22 07:49:12;;;;;;;22.63;12.43;;;6.60;89.50;;;;;;4951097;29;20198;-80
2020/12/22 07:51:47;;;;;;;22.47;12.80;;;6.70;89.20;;;;;;4950029;29;20171;-80
2020/12/22 07:54:14;;;;;;;25.13;13.03;;;6.70;89.30;;;;;;4950866;29;20235;-80
2020/12/22 07:56:44;;;;;;;27.30;14.33;;;6.70;89.10;;;;;;4949635;29;20174;-80
2020/12/22 07:59:11;;;;;;;27.23;15.07;;;6.80;89.30;;;;;;4968954;28;20546;-79
2020/12/22 08:01:48;;;;;;;28.83;14.90;;;6.80;88.80;;;;;;4966473;28;20194;-79
2020/12/22 08:04:21;;;;;;;27.77;14.13;;;6.90;88.10;;;;;;4949961;29;20262;-80
2020/12/22 08:07:08;;;;;;;30.53;16.10;;;6.90;88.00;;;;;;4957431;28;20191;-75
2020/12/22 08:09:37;;;;;;;28.37;15.37;;;6.90;88.30;;;;;;4971974;28;20622;-75
2020/12/22 08:12:05;;;;;;;33.13;15.50;;;6.90;88.00;;;;;;4970852;28;20182;-75
2020/12/22 08:14:39;;;;;;;29.40;14.40;;;6.90;87.70;;;;;;4953653;28;20656;-75
2020/12/22 08:17:18;;;;;;;27.27;14.80;;;7.00;88.00;;;;;;4958873;28;20188;-77
2020/12/22 08:19:44;;;;;;;21.40;12.90;;;7.00;88.00;;;;;;4953899;28;20202;-76
2020/12/22 08:22:14;;;;;;;26.30;13.40;;;7.00;88.00;;;;;;4960669;28;20238;-78
2020/12/22 08:24:40;;;;;;;29.87;15.27;;;7.10;87.50;;;;;;4968563;28;20248;-77
2020/12/22 08:27:09;;;;;;;25.07;13.90;;;7.10;87.40;;;;;;4967234;28;20745;-77
2020/12/22 08:29:38;;;;;;;23.87;13.27;;;7.10;87.50;;;;;;4970393;28;20782;-77
2020/12/22 08:32:05;;;;;;;24.00;13.33;;;7.10;87.40;;;;;;4970506;28;20717;-76
2020/12/22 08:34:31;;;;;;;22.70;12.43;;;7.10;87.30;;;;;;4966975;28;20186;-77
2020/12/22 08:36:57;;;;;;;23.23;13.13;;;7.10;87.80;;;;;;4965091;28;20193;-76
2020/12/22 08:39:26;;;;;;;20.93;12.30;;;7.20;88.40;;;;;;4969860;28;20616;-76
2020/12/22 08:41:57;;;;;;;27.33;13.73;;;7.30;88.70;;;;;;4959661;28;20193;-76
2020/12/22 08:44:27;;;;;;;27.30;13.10;;;7.40;88.40;;;;;;4969278;28;20228;-76
2020/12/22 08:46:54;;;;;;;32.90;15.13;;;7.60;88.30;;;;;;4958537;28;20300;-76
2020/12/22 08:49:26;;;;;;;22.13;13.50;;;7.70;87.70;;;;;;4964384;28;21017;-76
2020/12/22 08:51:56;;;;;;;27.67;14.87;;;7.90;87.40;;;;;;4946404;28;20174;-76
2020/12/22 08:54:28;;;;;;;20.37;13.17;;;8.00;86.80;;;;;;4954368;28;20186;-76
2020/12/22 08:57:07;;;;;;;21.63;12.63;;;8.10;86.90;;;;;;4968664;28;20177;-76
2020/12/22 08:59:33;;;;;;;20.70;11.97;;;8.20;86.90;;;;;;4962875;28;20182;-76
2020/12/22 09:01:58;;;;;;;26.67;14.23;;;8.20;86.70;;;;;;4967172;28;20209;-75
2020/12/22 09:04:29;;;;;;;27.83;15.03;;;8.30;85.90;;;;;;4968094;28;20277;-76
2020/12/22 09:06:56;;;;;;;27.30;14.87;;;8.20;84.30;;;;;;4968409;28;20185;-76
2020/12/22 09:09:30;;;;;;;33.70;16.80;;;8.10;84.40;;;;;;4955681;28;20203;-76
2020/12/22 09:12:07;;;;;;;27.70;16.77;;;8.00;84.30;;;;;;4966104;28;20244;-77
2020/12/22 09:14:43;;;;;;;30.73;15.80;;;7.90;84.40;;;;;;4967588;28;20229;-76
2020/12/22 09:17:10;;;;;;;34.50;16.53;;;7.80;84.60;;;;;;4963012;28;20194;-77
2020/12/22 09:19:41;;;;;;;32.10;17.30;;;7.80;84.90;;;;;;4968197;28;20194;-77
2020/12/22 09:22:08;;;;;;;35.13;18.13;;;7.70;85.00;;;;;;4952073;28;20274;-77
2020/12/22 09:24:34;;;;;;;31.40;17.00;;;7.70;85.10;;;;;;4968341;28;20229;-76
2020/12/22 09:27:05;;;;;;;34.43;18.07;;;7.60;85.20;;;;;;4969299;28;20947;-77
2020/12/22 09:29:31;;;;;;;29.43;17.03;;;7.60;85.40;;;;;;4968741;28;20226;-76
2020/12/22 09:31:59;;;;;;;34.63;18.23;;;7.60;85.60;;;;;;4969133;28;20182;-76
2020/12/22 09:34:27;;;;;;;31.20;17.77;;;7.60;85.70;;;;;;4957606;28;20185;-76
2020/12/22 09:36:59;;;;;;;32.77;17.40;;;7.70;85.90;;;;;;4970026;28;20602;-75
2020/12/22 09:39:25;;;;;;;35.80;18.20;;;7.70;85.70;;;;;;4969150;28;20178;-75
2020/12/22 09:41:52;;;;;;;44.87;20.60;;;7.70;85.80;;;;;;4969340;28;20265;-77
2020/12/22 09:44:19;;;;;;;38.00;17.87;;;7.70;85.60;;;;;;4966839;28;20187;-76
2020/12/22 09:46:49;;;;;;;44.27;18.37;;;7.80;85.50;;;;;;4960994;28;20187;-77
2020/12/22 09:49:15;;;;;;;35.40;18.60;;;7.80;85.50;;;;;;4959182;28;20201;-76
2020/12/22 09:51:41;;;;;;;33.60;18.20;;;7.80;85.70;;;;;;4967617;28;20576;-76
2020/12/22 09:54:07;;;;;;;42.67;20.27;;;7.80;85.60;;;;;;4968626;28;20198;-77
2020/12/22 09:56:32;;;;;;;34.70;18.77;;;7.90;85.50;;;;;;4958851;28;20183;-77
2020/12/22 09:59:02;;;;;;;38.73;18.10;;;7.90;85.00;;;;;;4964389;28;20742;-76
2020/12/22 10:01:28;;;;;;;35.80;20.63;;;7.90;85.40;;;;;;4959676;28;20258;-76
2020/12/22 10:03:54;;;;;;;32.93;18.90;;;7.90;85.40;;;;;;4969671;28;21032;-75
2020/12/22 10:06:22;;;;;;;39.33;19.00;;;7.90;84.90;;;;;;4951188;28;20193;-76
2020/12/22 10:08:49;;;;;;;39.13;19.30;;;7.80;84.80;;;;;;4968044;28;20195;-76
2020/12/22 10:11:15;;;;;;;36.13;20.52;;;7.70;85.30;;;;;;4962152;28;20276;-76
2020/12/22 10:13:41;;;;;;;43.03;19.67;;;7.70;85.70;;;;;;4960224;28;20957;-76
2020/12/22 10:16:19;;;;;;;38.23;19.70;;;7.80;85.50;;;;;;4957968;28;20636;-76
2020/12/22 10:18:45;;;;;;;35.47;18.10;;;7.80;85.90;;;;;;4952775;28;20636;-75
2020/12/22 10:21:16;;;;;;;38.53;20.33;;;7.80;85.90;;;;;;4964260;28;20193;-76
2020/12/22 10:23:43;;;;;;;37.80;19.80;;;7.90;86.00;;;;;;4965224;28;20653;-76
2020/12/22 10:26:11;;;;;;;44.08;18.60;;;8.00;86.00;;;;;;4967671;28;20605;-75
2020/12/22 10:28:39;;;;;;;36.50;19.00;;;8.20;85.80;;;;;;4962452;28;20272;-75
2020/12/22 10:31:05;;;;;;;38.50;19.47;;;8.30;85.80;;;;;;4965297;28;20228;-75
2020/12/22 10:33:31;;;;;;;40.00;19.87;;;8.50;84.70;;;;;;4966475;28;20185;-76
2020/12/22 10:35:57;;;;;;;38.43;19.13;;;8.60;84.70;;;;;;4957765;28;20187;-76
2020/12/22 10:38:22;;;;;;;39.85;20.00;;;8.60;84.20;;;;;;4949014;29;20585;-76
2020/12/22 10:40:49;;;;;;;42.23;21.57;;;8.70;84.20;;;;;;4961796;28;20186;-77
2020/12/22 10:43:16;;;;;;;35.63;19.30;;;8.70;84.40;;;;;;4962464;28;20197;-75
2020/12/22 10:45:41;;;;;;;38.45;18.55;;;8.70;83.90;;;;;;4959999;28;20248;-75
2020/12/22 10:48:08;;;;;;;31.40;18.00;;;8.80;84.00;;;;;;4967763;28;20174;-78
2020/12/22 10:50:36;;;;;;;34.20;18.43;;;8.80;83.70;;;;;;4965717;28;20206;-76
2020/12/22 10:53:08;;;;;;;35.22;18.25;;;8.80;84.10;;;;;;4961675;28;20341;-76
2020/12/22 10:55:35;;;;;;;35.72;18.98;;;8.80;83.60;;;;;;4958599;28;20268;-77
2020/12/22 10:58:01;;;;;;;42.57;18.93;;;8.80;83.00;;;;;;4962399;28;20198;-76
2020/12/22 11:00:27;;;;;;;41.37;19.23;;;8.80;83.30;;;;;;4968155;28;20178;-76
2020/12/22 11:02:54;;;;;;;37.97;18.42;;;8.80;83.00;;;;;;4965883;28;20271;-77
2020/12/22 11:08:05;;;;;;;40.90;19.23;;;8.80;83.30;;;;;;4967369;28;20376;-77
2020/12/22 11:10:31;;;;;;;39.00;19.30;;;8.80;82.80;;;;;;4963398;28;20288;-77
2020/12/22 11:12:57;;;;;;;37.78;19.98;;;8.80;83.20;;;;;;4967183;28;20197;-76
2020/12/22 11:15:23;;;;;;;34.00;19.48;;;8.80;82.60;;;;;;4967448;28;20681;-76
2020/12/22 11:17:48;;;;;;;32.83;18.17;;;8.70;82.40;;;;;;4967619;28;20304;-76
2020/12/22 11:20:14;;;;;;;40.25;18.80;;;8.70;82.50;;;;;;4955563;28;20241;-76
2020/12/22 11:22:40;;;;;;;40.00;21.13;;;8.60;83.00;;;;;;4965867;28;20218;-76
2020/12/22 11:25:06;;;;;;;44.27;22.10;;;8.60;83.50;;;;;;4968042;28;20194;-77
2020/12/22 11:27:31;;;;;;;42.53;20.58;;;8.60;83.70;;;;;;4967295;28;20348;-77
2020/12/22 11:29:57;;;;;;;40.65;21.30;;;8.70;83.60;;;;;;4967559;28;20675;-78
2020/12/22 11:32:22;;;;;;;43.07;20.03;;;8.80;83.60;;;;;;4966407;28;20641;-76
2020/12/22 11:34:48;;;;;;;34.13;19.20;;;9.00;83.70;;;;;;4971424;28;20665;-77
2020/12/22 11:37:14;;;;;;;39.20;20.60;;;9.10;82.70;;;;;;4969760;28;20184;-76
2020/12/22 11:39:39;;;;;;;35.00;18.98;;;9.10;82.70;;;;;;4971449;28;20190;-75
2020/12/22 11:42:05;;;;;;;43.38;19.40;;;9.10;82.90;;;;;;4971073;28;20186;-75
2020/12/22 11:44:31;;;;;;;38.28;18.85;;;9.10;82.80;;;;;;4971055;28;20189;-76
2020/12/22 11:46:57;;;;;;;34.63;18.73;;;9.10;82.40;;;;;;4965193;28;20281;-77
2020/12/22 11:49:24;;;;;;;38.28;19.90;;;9.00;81.70;;;;;;4956305;28;20761;-76
2020/12/22 11:51:56;;;;;;;37.45;19.52;;;8.90;82.30;;;;;;4956952;28;20664;-76
2020/12/22 11:54:22;;;;;;;38.42;19.30;;;8.80;82.20;;;;;;4952042;28;20213;-77
2020/12/22 11:56:48;;;;;;;32.65;18.33;;;8.80;82.40;;;;;;4951369;28;20175;-76
2020/12/22 11:59:15;;;;;;;39.50;20.52;;;8.80;83.10;;;;;;4969622;28;20183;-76
2020/12/22 12:01:40;;;;;;;43.45;21.92;;;8.90;83.20;;;;;;4963332;28;20190;-77
2020/12/22 12:04:06;;;;;;;42.83;20.17;;;9.00;83.10;;;;;;4965226;28;20213;-76
2020/12/22 12:06:32;;;;;;;43.55;22.17;;;9.10;82.40;;;;;;4959901;28;20203;-77
2020/12/22 12:08:57;;;;;;;45.03;22.08;;;9.10;82.90;;;;;;4961567;28;20214;-77
2020/12/22 12:11:23;;;;;;;39.40;20.77;;;9.20;83.10;;;;;;4970607;28;20186;-77
2020/12/22 12:13:49;;;;;;;40.35;20.25;;;9.30;83.30;;;;;;4960716;28;20194;-77
2020/12/22 12:16:20;;;;;;;42.42;21.65;;;9.40;82.10;;;;;;4943265;29;20660;-76
2020/12/22 12:18:46;;;;;;;45.90;21.48;;;9.50;82.40;;;;;;4956785;28;20202;-76
2020/12/22 12:21:16;;;;;;;46.80;21.90;;;9.50;81.70;;;;;;4952631;28;20636;-77
2020/12/22 12:23:43;;;;;;;47.83;22.02;;;9.40;80.70;;;;;;4963298;28;20179;-76
2020/12/22 12:26:10;;;;;;;43.47;20.17;;;9.30;81.60;;;;;;4968435;28;20202;-76
2020/12/22 12:28:41;;;;;;;41.22;20.73;;;9.30;81.70;;;;;;4952848;28;20596;-77
2020/12/22 12:31:17;;;;;;;34.25;19.35;;;9.30;82.60;;;;;;4969083;28;20539;-77
2020/12/22 12:33:43;;;;;;;36.38;20.67;;;9.40;82.80;;;;;;4967341;28;20296;-76
2020/12/22 12:36:12;;;;;;;42.20;20.67;;;9.50;82.40;;;;;;4963519;28;20269;-77
2020/12/22 12:38:38;;;;;;;51.53;22.48;;;9.60;82.10;;;;;;4962340;28;20308;-76
2020/12/22 12:41:04;;;;;;;42.03;20.88;;;9.70;81.60;;;;;;4967501;28;21196;-77
2020/12/22 12:43:29;;;;;;;43.38;21.73;;;9.70;81.00;;;;;;4966863;28;20189;-75
2020/12/22 12:45:55;;;;;;;46.10;21.23;;;9.70;80.50;;;;;;4962685;28;20192;-75